sensor_id;sensor_type;location;lat;lon;timestamp;pressure;altitude;pressure_sealevel;temperature;humidity
62051;BME280;48008;51.204;6.766;2022-11-23T00:01:39;99265.03;;;8.00;94.77
62051;BME280;48008;51.204;6.766;2022-11-23T00:04:08;99265.97;;;8.07;94.12
62051;BME280;48008;51.204;6.766;2022-11-23T00:06:37;99267.50;;;8.02;93.26
62051;BME280;48008;51.204;6.766;2022-11-23T00:09:04;99264.34;;;8.06;94.22
62051;BME280;48008;51.204;6.766;2022-11-23T00:11:33;99259.00;;;8.15;94.06
62051;BME280;48008;51.204;6.766;2022-11-23T00:14:00;99267.25;;;8.20;93.64
62051;BME280;48008;51.204;6.766;2022-11-23T00:16:28;99265.94;;;8.16;92.64
62051;BME280;48008;51.204;6.766;2022-11-23T00:18:57;99268.06;;;8.20;93.08
62051;BME280;48008;51.204;6.766;2022-11-23T00:21:26;99270.25;;;8.17;92.48
62051;BME280;48008;51.204;6.766;2022-11-23T00:23:53;99270.59;;;8.14;92.01
62051;BME280;48008;51.204;6.766;2022-11-23T00:26:20;99273.06;;;8.15;94.18
62051;BME280;48008;51.204;6.766;2022-11-23T00:28:47;99277.88;;;8.12;93.69
62051;BME280;48008;51.204;6.766;2022-11-23T00:31:15;99277.00;;;8.19;94.58
62051;BME280;48008;51.204;6.766;2022-11-23T00:33:49;99277.81;;;8.20;92.55
62051;BME280;48008;51.204;6.766;2022-11-23T00:36:16;99276.41;;;8.32;91.32
62051;BME280;48008;51.204;6.766;2022-11-23T00:38:43;99277.22;;;8.33;92.58
62051;BME280;48008;51.204;6.766;2022-11-23T00:41:14;99280.97;;;8.47;90.01
62051;BME280;48008;51.204;6.766;2022-11-23T00:43:41;99280.97;;;8.47;90.42
62051;BME280;48008;51.204;6.766;2022-11-23T00:46:16;99280.63;;;8.50;90.25
62051;BME280;48008;51.204;6.766;2022-11-23T00:48:44;99276.47;;;8.55;89.39
62051;BME280;48008;51.204;6.766;2022-11-23T00:51:14;99280.44;;;8.51;89.72
62051;BME280;48008;51.204;6.766;2022-11-23T00:53:41;99278.22;;;8.63;89.04
62051;BME280;48008;51.204;6.766;2022-11-23T00:56:09;99285.50;;;8.61;89.08
62051;BME280;48008;51.204;6.766;2022-11-23T00:58:36;99285.72;;;8.51;89.32
62051;BME280;48008;51.204;6.766;2022-11-23T01:01:11;99288.66;;;8.56;89.30
62051;BME280;48008;51.204;6.766;2022-11-23T01:03:41;99293.94;;;8.56;89.25
62051;BME280;48008;51.204;6.766;2022-11-23T01:06:10;99295.47;;;8.51;89.85
62051;BME280;48008;51.204;6.766;2022-11-23T01:08:38;99304.19;;;8.59;89.08
62051;BME280;48008;51.204;6.766;2022-11-23T01:11:08;99311.22;;;8.67;88.58
62051;BME280;48008;51.204;6.766;2022-11-23T01:13:37;99311.19;;;8.75;88.54
62051;BME280;48008;51.204;6.766;2022-11-23T01:16:08;99314.28;;;8.79;87.56
62051;BME280;48008;51.204;6.766;2022-11-23T01:18:36;99311.50;;;8.72;88.16
62051;BME280;48008;51.204;6.766;2022-11-23T01:21:02;99321.44;;;8.70;88.28
62051;BME280;48008;51.204;6.766;2022-11-23T01:23:29;99324.09;;;8.70;88.41
62051;BME280;48008;51.204;6.766;2022-11-23T01:25:56;99321.63;;;8.69;88.65
62051;BME280;48008;51.204;6.766;2022-11-23T01:28:23;99321.78;;;8.67;89.36
62051;BME280;48008;51.204;6.766;2022-11-23T01:30:50;99324.09;;;8.70;89.05
62051;BME280;48008;51.204;6.766;2022-11-23T01:33:16;99325.38;;;8.74;87.49
62051;BME280;48008;51.204;6.766;2022-11-23T01:35:44;99325.22;;;8.76;87.23
62051;BME280;48008;51.204;6.766;2022-11-23T01:38:11;99321.03;;;8.81;87.01
62051;BME280;48008;51.204;6.766;2022-11-23T01:40:42;99324.41;;;8.75;87.49
62051;BME280;48008;51.204;6.766;2022-11-23T01:43:14;99318.63;;;8.72;87.43
62051;BME280;48008;51.204;6.766;2022-11-23T01:45:43;99319.91;;;8.76;87.53
62051;BME280;48008;51.204;6.766;2022-11-23T01:48:15;99329.03;;;8.73;87.33
62051;BME280;48008;51.204;6.766;2022-11-23T01:50:45;99325.03;;;8.77;87.07
62051;BME280;48008;51.204;6.766;2022-11-23T01:53:14;99327.25;;;8.89;86.48
62051;BME280;48008;51.204;6.766;2022-11-23T01:55:42;99341.72;;;8.78;86.71
62051;BME280;48008;51.204;6.766;2022-11-23T01:58:13;99337.78;;;8.74;87.74
62051;BME280;48008;51.204;6.766;2022-11-23T02:00:41;99338.19;;;8.86;86.23
62051;BME280;48008;51.204;6.766;2022-11-23T02:03:08;99335.97;;;8.74;87.07
62051;BME280;48008;51.204;6.766;2022-11-23T02:05:41;99337.25;;;8.78;87.58
62051;BME280;48008;51.204;6.766;2022-11-23T02:08:14;99341.53;;;8.79;86.12
62051;BME280;48008;51.204;6.766;2022-11-23T02:10:44;99335.31;;;8.72;87.20
62051;BME280;48008;51.204;6.766;2022-11-23T02:13:12;99347.16;;;8.76;87.05
62051;BME280;48008;51.204;6.766;2022-11-23T02:15:39;99347.31;;;8.83;86.21
62051;BME280;48008;51.204;6.766;2022-11-23T02:18:12;99333.44;;;8.81;86.76
62051;BME280;48008;51.204;6.766;2022-11-23T02:20:43;99340.25;;;8.75;86.58
62051;BME280;48008;51.204;6.766;2022-11-23T02:24:04;99340.25;;;8.75;86.73
62051;BME280;48008;51.204;6.766;2022-11-23T02:26:20;99338.66;;;8.89;86.19
62051;BME280;48008;51.204;6.766;2022-11-23T02:28:52;99336.84;;;8.90;85.92
62051;BME280;48008;51.204;6.766;2022-11-23T02:31:21;99337.44;;;8.77;87.63
62051;BME280;48008;51.204;6.766;2022-11-23T02:33:47;99343.47;;;8.86;86.16
62051;BME280;48008;51.204;6.766;2022-11-23T02:36:34;99337.97;;;8.95;85.60
62051;BME280;48008;51.204;6.766;2022-11-23T02:39:08;99343.38;;;8.79;86.05
62051;BME280;48008;51.204;6.766;2022-11-23T02:41:38;99341.38;;;8.81;86.29
62051;BME280;48008;51.204;6.766;2022-11-23T02:47:05;99354.03;;;8.86;86.59
62051;BME280;48008;51.204;6.766;2022-11-23T02:49:32;99348.06;;;8.69;88.28
62051;BME280;48008;51.204;6.766;2022-11-23T02:51:59;99351.19;;;8.72;88.52
62051;BME280;48008;51.204;6.766;2022-11-23T02:54:27;99352.84;;;8.73;90.19
62051;BME280;48008;51.204;6.766;2022-11-23T02:56:55;99356.34;;;8.65;90.78
62051;BME280;48008;51.204;6.766;2022-11-23T02:59:22;99357.34;;;8.64;90.23
62051;BME280;48008;51.204;6.766;2022-11-23T03:01:50;99350.88;;;8.67;90.93
62051;BME280;48008;51.204;6.766;2022-11-23T03:04:17;99367.84;;;8.73;91.64
62051;BME280;48008;51.204;6.766;2022-11-23T03:06:46;99353.94;;;8.56;91.30
62051;BME280;48008;51.204;6.766;2022-11-23T03:09:12;99359.38;;;8.54;91.90
62051;BME280;48008;51.204;6.766;2022-11-23T03:11:40;99362.84;;;8.55;93.17
62051;BME280;48008;51.204;6.766;2022-11-23T03:14:07;99371.06;;;8.60;92.40
62051;BME280;48008;51.204;6.766;2022-11-23T03:16:42;99363.63;;;8.63;92.23
62051;BME280;48008;51.204;6.766;2022-11-23T03:19:09;99364.63;;;8.62;91.96
62051;BME280;48008;51.204;6.766;2022-11-23T03:21:36;99361.16;;;8.62;90.91
62051;BME280;48008;51.204;6.766;2022-11-23T03:24:05;99357.50;;;8.63;91.74
62051;BME280;48008;51.204;6.766;2022-11-23T03:26:33;99367.44;;;8.61;91.72
62051;BME280;48008;51.204;6.766;2022-11-23T03:29:08;99369.56;;;8.65;91.30
62051;BME280;48008;51.204;6.766;2022-11-23T03:31:36;99368.09;;;8.63;91.28
62051;BME280;48008;51.204;6.766;2022-11-23T03:34:08;99362.75;;;8.71;91.84
62051;BME280;48008;51.204;6.766;2022-11-23T03:36:36;99369.44;;;8.59;92.45
62051;BME280;48008;51.204;6.766;2022-11-23T03:39:03;99362.47;;;8.66;92.54
62051;BME280;48008;51.204;6.766;2022-11-23T03:41:50;99367.16;;;8.56;91.54
62051;BME280;48008;51.204;6.766;2022-11-23T03:44:20;99365.78;;;8.60;91.95
62051;BME280;48008;51.204;6.766;2022-11-23T03:46:47;99375.56;;;8.59;91.18
62051;BME280;48008;51.204;6.766;2022-11-23T03:49:15;99367.78;;;8.58;90.96
62051;BME280;48008;51.204;6.766;2022-11-23T03:51:42;99374.25;;;8.55;91.16
62051;BME280;48008;51.204;6.766;2022-11-23T03:54:09;99368.81;;;8.57;91.25
62051;BME280;48008;51.204;6.766;2022-11-23T03:56:37;99364.16;;;8.59;91.98
62051;BME280;48008;51.204;6.766;2022-11-23T03:59:03;99366.50;;;8.54;91.97
62051;BME280;48008;51.204;6.766;2022-11-23T04:01:30;99369.63;;;8.57;92.91
62051;BME280;48008;51.204;6.766;2022-11-23T04:04:01;99369.47;;;8.51;92.58
62051;BME280;48008;51.204;6.766;2022-11-23T04:06:36;99370.03;;;8.46;93.07
62051;BME280;48008;51.204;6.766;2022-11-23T04:09:11;99368.13;;;8.55;92.73
62051;BME280;48008;51.204;6.766;2022-11-23T04:11:49;99365.53;;;8.47;93.72
62051;BME280;48008;51.204;6.766;2022-11-23T04:14:17;99376.28;;;8.45;93.42
62051;BME280;48008;51.204;6.766;2022-11-23T04:16:44;99369.81;;;8.48;94.38
62051;BME280;48008;51.204;6.766;2022-11-23T04:19:11;99367.19;;;8.48;94.61
62051;BME280;48008;51.204;6.766;2022-11-23T04:21:38;99369.31;;;8.52;95.07
62051;BME280;48008;51.204;6.766;2022-11-23T04:24:05;99372.31;;;8.41;94.40
62051;BME280;48008;51.204;6.766;2022-11-23T04:26:34;99370.13;;;8.53;94.40
62051;BME280;48008;51.204;6.766;2022-11-23T04:29:01;99364.50;;;8.56;94.58
62051;BME280;48008;51.204;6.766;2022-11-23T04:31:29;99371.63;;;8.55;94.93
62051;BME280;48008;51.204;6.766;2022-11-23T04:34:10;99368.66;;;8.50;94.38
62051;BME280;48008;51.204;6.766;2022-11-23T04:36:37;99364.19;;;8.51;94.93
62051;BME280;48008;51.204;6.766;2022-11-23T04:39:06;99369.16;;;8.45;94.24
62051;BME280;48008;51.204;6.766;2022-11-23T04:41:40;99368.38;;;8.37;93.38
62051;BME280;48008;51.204;6.766;2022-11-23T04:44:08;99367.38;;;8.38;93.09
62051;BME280;48008;51.204;6.766;2022-11-23T04:46:35;99370.19;;;8.44;93.47
62051;BME280;48008;51.204;6.766;2022-11-23T04:49:08;99372.28;;;8.49;93.40
62051;BME280;48008;51.204;6.766;2022-11-23T04:51:36;99375.31;;;8.46;92.76
62051;BME280;48008;51.204;6.766;2022-11-23T04:54:03;99376.59;;;8.50;93.29
62051;BME280;48008;51.204;6.766;2022-11-23T04:56:38;99381.00;;;8.58;93.74
62051;BME280;48008;51.204;6.766;2022-11-23T04:59:05;99374.25;;;8.55;91.62
62051;BME280;48008;51.204;6.766;2022-11-23T05:01:32;99384.94;;;8.62;91.25
62051;BME280;48008;51.204;6.766;2022-11-23T05:04:19;99380.50;;;8.62;90.56
62051;BME280;48008;51.204;6.766;2022-11-23T05:06:47;99380.44;;;8.71;90.85
62051;BME280;48008;51.204;6.766;2022-11-23T05:09:14;99377.53;;;8.57;90.44
62051;BME280;48008;51.204;6.766;2022-11-23T05:11:50;99379.72;;;8.54;91.09
62051;BME280;48008;51.204;6.766;2022-11-23T05:14:17;99377.72;;;8.56;90.31
62051;BME280;48008;51.204;6.766;2022-11-23T05:16:44;99376.75;;;8.49;91.45
62051;BME280;48008;51.204;6.766;2022-11-23T05:19:11;99376.63;;;8.42;92.17
62051;BME280;48008;51.204;6.766;2022-11-23T05:21:38;99376.13;;;8.38;93.36
62051;BME280;48008;51.204;6.766;2022-11-23T05:24:05;99381.75;;;8.43;93.88
62051;BME280;48008;51.204;6.766;2022-11-23T05:26:33;99378.97;;;8.29;95.17
62051;BME280;48008;51.204;6.766;2022-11-23T05:29:01;99384.91;;;8.31;95.97
62051;BME280;48008;51.204;6.766;2022-11-23T05:31:29;99388.56;;;8.30;96.52
62051;BME280;48008;51.204;6.766;2022-11-23T05:33:56;99385.31;;;8.19;97.59
62051;BME280;48008;51.204;6.766;2022-11-23T05:36:33;99387.38;;;8.32;96.19
62051;BME280;48008;51.204;6.766;2022-11-23T05:39:01;99381.03;;;8.10;97.38
62051;BME280;48008;51.204;6.766;2022-11-23T05:41:31;99393.91;;;8.13;98.13
62051;BME280;48008;51.204;6.766;2022-11-23T05:44:00;99381.84;;;8.19;98.74
62051;BME280;48008;51.204;6.766;2022-11-23T05:46:28;99387.47;;;8.16;99.06
62051;BME280;48008;51.204;6.766;2022-11-23T05:48:55;99387.94;;;8.19;99.62
62051;BME280;48008;51.204;6.766;2022-11-23T05:51:23;99384.03;;;8.07;100.00
62051;BME280;48008;51.204;6.766;2022-11-23T05:53:50;99390.44;;;8.13;100.00
62051;BME280;48008;51.204;6.766;2022-11-23T05:56:24;99390.25;;;8.14;100.00
62051;BME280;48008;51.204;6.766;2022-11-23T05:59:03;99391.94;;;8.07;100.00
62051;BME280;48008;51.204;6.766;2022-11-23T06:01:33;99394.91;;;8.04;99.78
62051;BME280;48008;51.204;6.766;2022-11-23T06:04:01;99394.75;;;8.05;99.68
62051;BME280;48008;51.204;6.766;2022-11-23T06:06:33;99393.13;;;8.04;99.83
62051;BME280;48008;51.204;6.766;2022-11-23T06:09:00;99398.72;;;8.10;99.67
62051;BME280;48008;51.204;6.766;2022-11-23T06:11:27;99392.56;;;8.17;99.37
62051;BME280;48008;51.204;6.766;2022-11-23T06:13:58;99393.44;;;8.10;99.08
62051;BME280;48008;51.204;6.766;2022-11-23T06:16:25;99397.03;;;8.17;98.37
62051;BME280;48008;51.204;6.766;2022-11-23T06:19:01;99395.66;;;8.29;98.36
62051;BME280;48008;51.204;6.766;2022-11-23T06:21:28;99394.25;;;8.10;97.98
62051;BME280;48008;51.204;6.766;2022-11-23T06:23:55;99398.19;;;8.14;98.50
62051;BME280;48008;51.204;6.766;2022-11-23T06:26:22;99396.50;;;8.21;98.32
62051;BME280;48008;51.204;6.766;2022-11-23T06:28:49;99387.94;;;8.19;98.66
62051;BME280;48008;51.204;6.766;2022-11-23T06:31:16;99391.09;;;8.15;98.53
62051;BME280;48008;51.204;6.766;2022-11-23T06:33:43;99386.94;;;8.20;96.69
62051;BME280;48008;51.204;6.766;2022-11-23T06:36:10;99391.63;;;8.10;97.05
62051;BME280;48008;51.204;6.766;2022-11-23T06:38:43;99388.34;;;8.00;97.79
62051;BME280;48008;51.204;6.766;2022-11-23T06:41:14;99388.00;;;7.95;96.23
62051;BME280;48008;51.204;6.766;2022-11-23T06:43:41;99393.28;;;8.03;96.30
62051;BME280;48008;51.204;6.766;2022-11-23T06:46:09;99389.13;;;8.08;95.17
62051;BME280;48008;51.204;6.766;2022-11-23T06:48:42;99390.97;;;8.08;95.10
62051;BME280;48008;51.204;6.766;2022-11-23T06:51:11;99394.75;;;8.05;95.77
62051;BME280;48008;51.204;6.766;2022-11-23T06:53:38;99390.78;;;8.10;96.02
62051;BME280;48008;51.204;6.766;2022-11-23T06:56:07;99401.53;;;8.08;96.40
62051;BME280;48008;51.204;6.766;2022-11-23T06:58:34;99403.16;;;8.17;96.19
62051;BME280;48008;51.204;6.766;2022-11-23T07:01:08;99403.47;;;8.22;93.81
62051;BME280;48008;51.204;6.766;2022-11-23T07:03:40;99403.03;;;8.02;95.30
62051;BME280;48008;51.204;6.766;2022-11-23T07:06:18;99408.47;;;8.01;94.68
62051;BME280;48008;51.204;6.766;2022-11-23T07:08:45;99407.78;;;8.07;95.01
62051;BME280;48008;51.204;6.766;2022-11-23T07:11:27;99405.31;;;8.05;94.54
62051;BME280;48008;51.204;6.766;2022-11-23T07:13:54;99407.97;;;8.05;93.14
62051;BME280;48008;51.204;6.766;2022-11-23T07:16:23;99408.09;;;8.12;93.11
62051;BME280;48008;51.204;6.766;2022-11-23T07:18:50;99414.03;;;8.14;93.75
62051;BME280;48008;51.204;6.766;2022-11-23T07:21:17;99413.38;;;8.12;93.05
62051;BME280;48008;51.204;6.766;2022-11-23T07:23:45;99417.00;;;8.19;90.69
62051;BME280;48008;51.204;6.766;2022-11-23T07:26:11;99411.06;;;8.17;91.86
62051;BME280;48008;51.204;6.766;2022-11-23T07:28:38;99418.47;;;8.22;91.39
62051;BME280;48008;51.204;6.766;2022-11-23T07:31:05;99423.19;;;8.35;89.96
62051;BME280;48008;51.204;6.766;2022-11-23T07:33:31;99423.09;;;8.28;90.54
62051;BME280;48008;51.204;6.766;2022-11-23T07:36:00;99422.97;;;8.13;88.45
62051;BME280;48008;51.204;6.766;2022-11-23T07:38:30;99431.66;;;8.30;89.14
62051;BME280;48008;51.204;6.766;2022-11-23T07:40:58;99431.66;;;8.30;89.62
62051;BME280;48008;51.204;6.766;2022-11-23T07:43:43;99445.00;;;8.45;87.85
62051;BME280;48008;51.204;6.766;2022-11-23T07:46:10;99446.28;;;8.49;87.34
62051;BME280;48008;51.204;6.766;2022-11-23T07:48:36;99448.59;;;8.52;86.68
62051;BME280;48008;51.204;6.766;2022-11-23T07:51:03;99457.50;;;8.59;85.88
62051;BME280;48008;51.204;6.766;2022-11-23T07:53:31;99452.03;;;8.61;84.40
62051;BME280;48008;51.204;6.766;2022-11-23T07:55:57;99454.88;;;8.51;84.55
62051;BME280;48008;51.204;6.766;2022-11-23T07:58:24;99458.69;;;8.57;85.15
62051;BME280;48008;51.204;6.766;2022-11-23T08:00:51;99463.09;;;8.64;83.45
62051;BME280;48008;51.204;6.766;2022-11-23T08:03:19;99458.94;;;8.70;83.63
62051;BME280;48008;51.204;6.766;2022-11-23T08:05:52;99460.00;;;8.84;81.54
62051;BME280;48008;51.204;6.766;2022-11-23T08:08:19;99472.94;;;8.79;82.54
62051;BME280;48008;51.204;6.766;2022-11-23T08:10:45;99462.38;;;8.79;82.02
62051;BME280;48008;51.204;6.766;2022-11-23T08:13:15;99464.31;;;8.85;81.19
62051;BME280;48008;51.204;6.766;2022-11-23T08:15:42;99476.09;;;8.74;81.92
62051;BME280;48008;51.204;6.766;2022-11-23T08:18:09;99464.38;;;8.77;83.27
62051;BME280;48008;51.204;6.766;2022-11-23T08:20:35;99480.50;;;8.82;83.23
62051;BME280;48008;51.204;6.766;2022-11-23T08:23:02;99473.63;;;8.73;84.13
62051;BME280;48008;51.204;6.766;2022-11-23T08:25:28;99474.63;;;8.72;82.77
62051;BME280;48008;51.204;6.766;2022-11-23T08:27:58;99473.22;;;8.53;81.85
62051;BME280;48008;51.204;6.766;2022-11-23T08:30:26;99469.41;;;8.55;82.73
62051;BME280;48008;51.204;6.766;2022-11-23T08:32:53;99476.88;;;8.43;82.58
62051;BME280;48008;51.204;6.766;2022-11-23T08:35:20;99470.22;;;8.56;82.86
62051;BME280;48008;51.204;6.766;2022-11-23T08:37:47;99484.25;;;8.64;81.61
62051;BME280;48008;51.204;6.766;2022-11-23T08:40:14;99476.69;;;8.53;82.57
62051;BME280;48008;51.204;6.766;2022-11-23T08:42:43;99483.94;;;8.51;83.06
62051;BME280;48008;51.204;6.766;2022-11-23T08:45:10;99479.03;;;8.48;81.64
62051;BME280;48008;51.204;6.766;2022-11-23T08:47:36;99477.78;;;8.67;81.96
62051;BME280;48008;51.204;6.766;2022-11-23T08:50:04;99483.38;;;8.72;81.21
62051;BME280;48008;51.204;6.766;2022-11-23T08:52:30;99489.03;;;8.61;82.49
62051;BME280;48008;51.204;6.766;2022-11-23T08:54:58;99487.91;;;8.55;82.16
62051;BME280;48008;51.204;6.766;2022-11-23T08:57:26;99486.78;;;8.50;80.62
62051;BME280;48008;51.204;6.766;2022-11-23T08:59:53;99487.59;;;8.50;81.51
62051;BME280;48008;51.204;6.766;2022-11-23T09:02:19;99481.13;;;8.61;81.13
62051;BME280;48008;51.204;6.766;2022-11-23T09:04:46;99482.97;;;8.52;80.41
62051;BME280;48008;51.204;6.766;2022-11-23T09:07:13;99487.69;;;8.65;79.67
62051;BME280;48008;51.204;6.766;2022-11-23T09:09:40;99489.78;;;8.78;80.39
62051;BME280;48008;51.204;6.766;2022-11-23T09:12:06;99491.63;;;8.69;79.51
62051;BME280;48008;51.204;6.766;2022-11-23T09:14:34;99487.78;;;8.80;79.09
62051;BME280;48008;51.204;6.766;2022-11-23T09:17:01;99491.06;;;8.90;78.20
62051;BME280;48008;51.204;6.766;2022-11-23T09:19:28;99505.75;;;8.93;77.88
62051;BME280;48008;51.204;6.766;2022-11-23T09:21:55;99505.38;;;9.04;77.14
62051;BME280;48008;51.204;6.766;2022-11-23T09:24:21;99496.25;;;9.07;77.48
62051;BME280;48008;51.204;6.766;2022-11-23T09:26:48;99487.13;;;8.86;76.78
62051;BME280;48008;51.204;6.766;2022-11-23T09:29:15;99493.00;;;8.96;78.10
62051;BME280;48008;51.204;6.766;2022-11-23T09:31:42;99501.47;;;8.92;76.47
62051;BME280;48008;51.204;6.766;2022-11-23T09:34:11;99497.00;;;8.92;77.42
62051;BME280;48008;51.204;6.766;2022-11-23T09:36:38;99505.31;;;8.81;77.80
62051;BME280;48008;51.204;6.766;2022-11-23T09:39:05;99497.69;;;8.86;78.06
62051;BME280;48008;51.204;6.766;2022-11-23T09:44:43;99505.53;;;9.02;77.09
62051;BME280;48008;51.204;6.766;2022-11-23T09:47:29;99507.00;;;9.05;77.66
62051;BME280;48008;51.204;6.766;2022-11-23T09:52:46;99503.13;;;9.16;75.69
62051;BME280;48008;51.204;6.766;2022-11-23T09:58:20;99496.25;;;9.07;75.89
62051;BME280;48008;51.204;6.766;2022-11-23T10:01:09;99500.25;;;9.26;75.33
62051;BME280;48008;51.204;6.766;2022-11-23T10:03:39;99489.78;;;9.09;76.09
62051;BME280;48008;51.204;6.766;2022-11-23T10:06:28;99494.16;;;9.25;75.09
62051;BME280;48008;51.204;6.766;2022-11-23T10:09:11;99494.16;;;9.25;74.53
62051;BME280;48008;51.204;6.766;2022-11-23T10:15:02;99484.03;;;9.29;73.96
62051;BME280;48008;51.204;6.766;2022-11-23T10:21:05;99489.50;;;9.50;72.05
62051;BME280;48008;51.204;6.766;2022-11-23T10:23:54;99483.28;;;9.81;70.93
62051;BME280;48008;51.204;6.766;2022-11-23T10:26:27;99488.72;;;10.03;70.73
62051;BME280;48008;51.204;6.766;2022-11-23T10:28:57;99481.78;;;10.31;68.28
62051;BME280;48008;51.204;6.766;2022-11-23T10:31:28;99478.88;;;10.41;68.32
62051;BME280;48008;51.204;6.766;2022-11-23T10:34:13;99480.06;;;10.53;68.05
62051;BME280;48008;51.204;6.766;2022-11-23T10:36:42;99473.28;;;10.51;68.13
62051;BME280;48008;51.204;6.766;2022-11-23T10:39:21;99466.53;;;10.48;67.50
62051;BME280;48008;51.204;6.766;2022-11-23T10:41:50;99468.00;;;10.36;67.23
62051;BME280;48008;51.204;6.766;2022-11-23T10:44:24;99455.06;;;10.78;66.07
62051;BME280;48008;51.204;6.766;2022-11-23T10:46:54;99456.66;;;13.04;58.33
62051;BME280;48008;51.204;6.766;2022-11-23T10:49:24;99453.53;;;15.57;51.65
62051;BME280;48008;51.204;6.766;2022-11-23T10:51:58;99456.78;;;16.64;47.39
62051;BME280;48008;51.204;6.766;2022-11-23T10:54:32;99455.78;;;18.03;44.09
62051;BME280;48008;51.204;6.766;2022-11-23T10:57:19;99448.56;;;18.56;41.74
62051;BME280;48008;51.204;6.766;2022-11-23T11:02:42;99441.03;;;19.28;39.07
62051;BME280;48008;51.204;6.766;2022-11-23T11:07:49;99440.81;;;19.80;37.98
62051;BME280;48008;51.204;6.766;2022-11-23T11:10:40;99433.84;;;20.62;36.24
62051;BME280;48008;51.204;6.766;2022-11-23T11:13:28;99430.34;;;20.40;35.88
62051;BME280;48008;51.204;6.766;2022-11-23T11:16:15;99421.72;;;20.21;36.89
62051;BME280;48008;51.204;6.766;2022-11-23T11:18:43;99414.09;;;19.56;37.45
62051;BME280;48008;51.204;6.766;2022-11-23T11:21:32;99415.16;;;20.11;38.17
62051;BME280;48008;51.204;6.766;2022-11-23T11:24:04;99416.28;;;19.77;37.75
62051;BME280;48008;51.204;6.766;2022-11-23T11:26:33;99398.25;;;18.92;38.77
62051;BME280;48008;51.204;6.766;2022-11-23T11:29:04;99397.31;;;18.17;39.64
62051;BME280;48008;51.204;6.766;2022-11-23T11:31:58;99400.84;;;17.94;40.17
62051;BME280;48008;51.204;6.766;2022-11-23T11:37:12;99398.59;;;15.61;45.21
62051;BME280;48008;51.204;6.766;2022-11-23T11:40:32;99394.97;;;14.53;48.24
62051;BME280;48008;51.204;6.766;2022-11-23T11:43:24;99401.66;;;12.63;52.57
62051;BME280;48008;51.204;6.766;2022-11-23T11:45:43;99391.75;;;11.67;55.14
62051;BME280;48008;51.204;6.766;2022-11-23T11:48:42;99385.06;;;11.22;57.53
62051;BME280;48008;51.204;6.766;2022-11-23T11:51:21;99388.44;;;11.09;58.89
62051;BME280;48008;51.204;6.766;2022-11-23T11:54:02;99390.81;;;10.82;59.74
62051;BME280;48008;51.204;6.766;2022-11-23T11:56:37;99393.88;;;10.79;61.03
62051;BME280;48008;51.204;6.766;2022-11-23T11:59:21;99380.91;;;10.91;61.74
62051;BME280;48008;51.204;6.766;2022-11-23T12:01:55;99380.88;;;10.48;61.28
62051;BME280;48008;51.204;6.766;2022-11-23T12:04:36;99384.25;;;10.78;61.86
62051;BME280;48008;51.204;6.766;2022-11-23T12:08:00;99371.63;;;10.80;61.19
62051;BME280;48008;51.204;6.766;2022-11-23T12:10:16;99377.38;;;10.84;61.53
62051;BME280;48008;51.204;6.766;2022-11-23T12:12:44;99375.69;;;10.98;59.92
62051;BME280;48008;51.204;6.766;2022-11-23T12:15:17;99382.44;;;11.00;60.93
62051;BME280;48008;51.204;6.766;2022-11-23T12:18:13;99371.06;;;11.06;60.26
62051;BME280;48008;51.204;6.766;2022-11-23T12:20:51;99376.22;;;11.14;60.82
62051;BME280;48008;51.204;6.766;2022-11-23T12:23:41;99368.50;;;10.91;61.09
62051;BME280;48008;51.204;6.766;2022-11-23T12:26:37;99379.09;;;10.91;62.04
62051;BME280;48008;51.204;6.766;2022-11-23T12:29:47;99366.56;;;10.85;61.57
62051;BME280;48008;51.204;6.766;2022-11-23T12:32:40;99368.97;;;11.02;61.88
62051;BME280;48008;51.204;6.766;2022-11-23T12:35:26;99365.25;;;10.96;61.88
62051;BME280;48008;51.204;6.766;2022-11-23T12:38:14;99363.72;;;10.65;61.52
62051;BME280;48008;51.204;6.766;2022-11-23T12:47:02;99337.94;;;11.52;59.38
62051;BME280;48008;51.204;6.766;2022-11-23T12:49:45;99353.69;;;12.30;58.13
62051;BME280;48008;51.204;6.766;2022-11-23T12:55:33;99325.13;;;13.66;50.95
62051;BME280;48008;51.204;6.766;2022-11-23T12:58:11;99325.53;;;13.82;51.00
62051;BME280;48008;51.204;6.766;2022-11-23T13:00:51;99327.38;;;13.75;50.42
62051;BME280;48008;51.204;6.766;2022-11-23T13:03:48;99320.75;;;13.91;50.70
62051;BME280;48008;51.204;6.766;2022-11-23T13:21:17;99315.91;;;10.59;61.16
62051;BME280;48008;51.204;6.766;2022-11-23T13:23:47;99309.47;;;10.46;61.86
62051;BME280;48008;51.204;6.766;2022-11-23T13:26:17;99313.47;;;10.21;63.66
62051;BME280;48008;51.204;6.766;2022-11-23T13:28:47;99316.47;;;10.32;62.71
62051;BME280;48008;51.204;6.766;2022-11-23T13:33:54;99308.38;;;10.04;64.47
62051;BME280;48008;51.204;6.766;2022-11-23T13:39:04;99309.56;;;10.02;65.08
62051;BME280;48008;51.204;6.766;2022-11-23T13:41:55;99306.91;;;10.02;64.29
62051;BME280;48008;51.204;6.766;2022-11-23T13:44:26;99305.16;;;10.09;65.78
62051;BME280;48008;51.204;6.766;2022-11-23T13:47:03;99303.13;;;10.11;65.29
62051;BME280;48008;51.204;6.766;2022-11-23T13:52:28;99300.47;;;10.11;65.05
62051;BME280;48008;51.204;6.766;2022-11-23T13:57:36;99291.22;;;9.85;65.34
62051;BME280;48008;51.204;6.766;2022-11-23T14:06:46;99280.63;;;9.70;65.16
62051;BME280;48008;51.204;6.766;2022-11-23T14:09:34;99285.00;;;9.78;66.38
62051;BME280;48008;51.204;6.766;2022-11-23T14:12:11;99285.19;;;9.76;64.87
62051;BME280;48008;51.204;6.766;2022-11-23T14:15:02;99284.75;;;9.88;64.86
62051;BME280;48008;51.204;6.766;2022-11-23T14:17:58;99290.03;;;9.88;65.82
62051;BME280;48008;51.204;6.766;2022-11-23T14:27:07;99291.78;;;9.80;66.45
62051;BME280;48008;51.204;6.766;2022-11-23T14:30:05;99296.88;;;9.67;66.46
62051;BME280;48008;51.204;6.766;2022-11-23T14:32:50;99292.41;;;9.53;66.71
62051;BME280;48008;51.204;6.766;2022-11-23T14:35:32;99292.78;;;9.50;66.97
62051;BME280;48008;51.204;6.766;2022-11-23T14:38:11;99288.13;;;9.37;67.47
62051;BME280;48008;51.204;6.766;2022-11-23T14:41:08;99292.59;;;9.36;67.69
62051;BME280;48008;51.204;6.766;2022-11-23T14:43:40;99274.00;;;9.45;67.56
62051;BME280;48008;51.204;6.766;2022-11-23T14:46:14;99279.81;;;9.55;67.13
62051;BME280;48008;51.204;6.766;2022-11-23T14:48:42;99298.28;;;9.48;67.39